sensor_id;sensor_type;location;lat;lon;timestamp;P1;durP1;ratioP1;P2;durP2;ratioP2
20802;SDS011;10562;-33.856;151.182;2023-01-16T00:01:44;2.53;;;0.68;;
20802;SDS011;10562;-33.856;151.182;2023-01-16T00:04:15;3.00;;;0.80;;
20802;SDS011;10562;-33.856;151.182;2023-01-16T00:06:46;3.08;;;0.90;;
20802;SDS011;10562;-33.856;151.182;2023-01-16T00:09:17;3.00;;;0.90;;
20802;SDS011;10562;-33.856;151.182;2023-01-16T00:11:48;3.67;;;0.80;;
20802;SDS011;10562;-33.856;151.182;2023-01-16T00:14:18;2.97;;;0.70;;
20802;SDS011;10562;-33.856;151.182;2023-01-16T00:16:51;6.88;;;0.98;;
20802;SDS011;10562;-33.856;151.182;2023-01-16T00:19:22;3.78;;;0.75;;
20802;SDS011;10562;-33.856;151.182;2023-01-16T00:21:53;5.07;;;0.73;;
20802;SDS011;10562;-33.856;151.182;2023-01-16T00:24:23;4.22;;;0.82;;
20802;SDS011;10562;-33.856;151.182;2023-01-16T00:26:54;5.53;;;0.98;;
20802;SDS011;10562;-33.856;151.182;2023-01-16T00:29:25;4.13;;;0.80;;
20802;SDS011;10562;-33.856;151.182;2023-01-16T00:31:58;4.90;;;0.88;;
20802;SDS011;10562;-33.856;151.182;2023-01-16T00:34:29;4.82;;;0.82;;
20802;SDS011;10562;-33.856;151.182;2023-01-16T00:36:59;4.07;;;0.95;;
20802;SDS011;10562;-33.856;151.182;2023-01-16T00:39:30;3.42;;;0.80;;
20802;SDS011;10562;-33.856;151.182;2023-01-16T00:42:01;4.50;;;1.10;;
20802;SDS011;10562;-33.856;151.182;2023-01-16T00:44:32;4.20;;;1.05;;
20802;SDS011;10562;-33.856;151.182;2023-01-16T00:47:04;8.52;;;2.83;;
20802;SDS011;10562;-33.856;151.182;2023-01-16T00:49:35;4.35;;;0.90;;
20802;SDS011;10562;-33.856;151.182;2023-01-16T00:52:06;4.05;;;0.70;;
20802;SDS011;10562;-33.856;151.182;2023-01-16T00:54:37;6.85;;;1.00;;
20802;SDS011;10562;-33.856;151.182;2023-01-16T00:57:08;4.97;;;0.70;;
20802;SDS011;10562;-33.856;151.182;2023-01-16T00:59:38;4.63;;;0.73;;
20802;SDS011;10562;-33.856;151.182;2023-01-16T01:02:11;3.30;;;1.00;;
20802;SDS011;10562;-33.856;151.182;2023-01-16T01:04:42;4.63;;;1.00;;
20802;SDS011;10562;-33.856;151.182;2023-01-16T01:07:13;5.32;;;0.88;;
20802;SDS011;10562;-33.856;151.182;2023-01-16T01:09:43;2.72;;;0.60;;
20802;SDS011;10562;-33.856;151.182;2023-01-16T01:12:14;2.65;;;0.60;;
20802;SDS011;10562;-33.856;151.182;2023-01-16T01:14:45;4.25;;;0.82;;
20802;SDS011;10562;-33.856;151.182;2023-01-16T01:17:18;3.72;;;0.75;;
20802;SDS011;10562;-33.856;151.182;2023-01-16T01:19:48;3.38;;;0.60;;
20802;SDS011;10562;-33.856;151.182;2023-01-16T01:22:19;3.15;;;0.80;;
20802;SDS011;10562;-33.856;151.182;2023-01-16T01:24:50;3.42;;;0.60;;
20802;SDS011;10562;-33.856;151.182;2023-01-16T01:27:21;3.45;;;0.70;;
20802;SDS011;10562;-33.856;151.182;2023-01-16T01:29:52;3.10;;;0.57;;
20802;SDS011;10562;-33.856;151.182;2023-01-16T01:32:24;3.20;;;0.70;;
20802;SDS011;10562;-33.856;151.182;2023-01-16T01:34:55;1.48;;;0.60;;
20802;SDS011;10562;-33.856;151.182;2023-01-16T01:37:26;2.80;;;0.63;;
20802;SDS011;10562;-33.856;151.182;2023-01-16T01:39:57;3.45;;;0.47;;
20802;SDS011;10562;-33.856;151.182;2023-01-16T01:42:28;3.88;;;0.60;;
20802;SDS011;10562;-33.856;151.182;2023-01-16T01:45:19;7.07;;;1.00;;
20802;SDS011;10562;-33.856;151.182;2023-01-16T01:47:54;2.75;;;0.63;;
20802;SDS011;10562;-33.856;151.182;2023-01-16T01:50:30;1.65;;;0.60;;
20802;SDS011;10562;-33.856;151.182;2023-01-16T01:53:07;4.40;;;0.90;;
20802;SDS011;10562;-33.856;151.182;2023-01-16T01:55:40;2.30;;;0.70;;
20802;SDS011;10562;-33.856;151.182;2023-01-16T01:58:14;2.42;;;0.60;;
20802;SDS011;10562;-33.856;151.182;2023-01-16T02:00:50;4.28;;;0.95;;
20802;SDS011;10562;-33.856;151.182;2023-01-16T02:03:26;3.00;;;0.60;;
20802;SDS011;10562;-33.856;151.182;2023-01-16T02:06:00;3.92;;;0.70;;
20802;SDS011;10562;-33.856;151.182;2023-01-16T02:08:34;2.45;;;0.60;;
20802;SDS011;10562;-33.856;151.182;2023-01-16T02:11:06;4.13;;;0.70;;
20802;SDS011;10562;-33.856;151.182;2023-01-16T02:13:52;4.43;;;0.60;;
20802;SDS011;10562;-33.856;151.182;2023-01-16T02:16:24;3.50;;;0.75;;
20802;SDS011;10562;-33.856;151.182;2023-01-16T02:19:20;2.50;;;0.63;;
20802;SDS011;10562;-33.856;151.182;2023-01-16T02:22:14;2.78;;;0.68;;
20802;SDS011;10562;-33.856;151.182;2023-01-16T02:25:03;3.10;;;0.80;;
20802;SDS011;10562;-33.856;151.182;2023-01-16T02:28:00;3.92;;;0.75;;
20802;SDS011;10562;-33.856;151.182;2023-01-16T02:31:03;1.55;;;0.50;;
20802;SDS011;10562;-33.856;151.182;2023-01-16T02:33:51;3.97;;;0.70;;
20802;SDS011;10562;-33.856;151.182;2023-01-16T02:36:34;2.80;;;0.65;;
20802;SDS011;10562;-33.856;151.182;2023-01-16T02:39:13;5.03;;;0.68;;
20802;SDS011;10562;-33.856;151.182;2023-01-16T02:41:52;1.35;;;0.57;;
20802;SDS011;10562;-33.856;151.182;2023-01-16T02:44:33;5.95;;;0.50;;
20802;SDS011;10562;-33.856;151.182;2023-01-16T02:47:12;3.60;;;0.70;;
20802;SDS011;10562;-33.856;151.182;2023-01-16T02:49:52;2.83;;;0.80;;
20802;SDS011;10562;-33.856;151.182;2023-01-16T02:52:31;4.53;;;0.60;;
20802;SDS011;10562;-33.856;151.182;2023-01-16T02:55:07;3.15;;;0.70;;
20802;SDS011;10562;-33.856;151.182;2023-01-16T02:57:47;4.28;;;0.80;;
20802;SDS011;10562;-33.856;151.182;2023-01-16T03:00:22;2.63;;;0.65;;
20802;SDS011;10562;-33.856;151.182;2023-01-16T03:02:56;4.50;;;0.82;;
20802;SDS011;10562;-33.856;151.182;2023-01-16T03:05:27;3.33;;;0.70;;
20802;SDS011;10562;-33.856;151.182;2023-01-16T03:08:19;6.10;;;0.80;;
20802;SDS011;10562;-33.856;151.182;2023-01-16T03:11:05;6.05;;;0.68;;
20802;SDS011;10562;-33.856;151.182;2023-01-16T03:13:55;3.50;;;0.73;;
20802;SDS011;10562;-33.856;151.182;2023-01-16T03:16:36;4.07;;;0.77;;
20802;SDS011;10562;-33.856;151.182;2023-01-16T03:19:20;1.65;;;0.50;;
20802;SDS011;10562;-33.856;151.182;2023-01-16T03:22:01;2.97;;;0.70;;
20802;SDS011;10562;-33.856;151.182;2023-01-16T03:24:42;6.85;;;1.00;;
20802;SDS011;10562;-33.856;151.182;2023-01-16T03:27:29;5.88;;;0.90;;
20802;SDS011;10562;-33.856;151.182;2023-01-16T03:30:09;4.30;;;0.90;;
20802;SDS011;10562;-33.856;151.182;2023-01-16T03:32:44;3.88;;;0.70;;
20802;SDS011;10562;-33.856;151.182;2023-01-16T03:35:21;5.30;;;0.80;;
20802;SDS011;10562;-33.856;151.182;2023-01-16T03:38:00;5.05;;;0.70;;
20802;SDS011;10562;-33.856;151.182;2023-01-16T03:40:36;4.43;;;0.98;;
20802;SDS011;10562;-33.856;151.182;2023-01-16T03:43:12;6.00;;;1.00;;
20802;SDS011;10562;-33.856;151.182;2023-01-16T03:45:47;6.55;;;0.90;;
20802;SDS011;10562;-33.856;151.182;2023-01-16T03:48:22;3.65;;;0.82;;
20802;SDS011;10562;-33.856;151.182;2023-01-16T03:50:59;4.32;;;0.73;;
20802;SDS011;10562;-33.856;151.182;2023-01-16T03:53:33;6.35;;;1.00;;
20802;SDS011;10562;-33.856;151.182;2023-01-16T03:56:10;4.20;;;0.82;;
20802;SDS011;10562;-33.856;151.182;2023-01-16T03:58:44;4.50;;;0.60;;
20802;SDS011;10562;-33.856;151.182;2023-01-16T04:01:19;3.85;;;0.80;;
20802;SDS011;10562;-33.856;151.182;2023-01-16T04:03:55;4.13;;;0.80;;
20802;SDS011;10562;-33.856;151.182;2023-01-16T04:06:34;3.75;;;0.60;;
20802;SDS011;10562;-33.856;151.182;2023-01-16T04:09:10;5.95;;;0.80;;
20802;SDS011;10562;-33.856;151.182;2023-01-16T04:11:49;3.67;;;0.70;;
20802;SDS011;10562;-33.856;151.182;2023-01-16T04:14:21;3.42;;;0.70;;
20802;SDS011;10562;-33.856;151.182;2023-01-16T04:16:54;4.10;;;0.70;;
20802;SDS011;10562;-33.856;151.182;2023-01-16T04:19:26;3.20;;;0.70;;
20802;SDS011;10562;-33.856;151.182;2023-01-16T04:22:03;4.05;;;0.90;;
20802;SDS011;10562;-33.856;151.182;2023-01-16T04:24:38;4.90;;;0.82;;
20802;SDS011;10562;-33.856;151.182;2023-01-16T04:27:09;5.97;;;0.95;;
20802;SDS011;10562;-33.856;151.182;2023-01-16T04:29:40;3.38;;;0.65;;
20802;SDS011;10562;-33.856;151.182;2023-01-16T04:32:11;4.93;;;0.77;;
20802;SDS011;10562;-33.856;151.182;2023-01-16T04:34:42;3.15;;;0.80;;
20802;SDS011;10562;-33.856;151.182;2023-01-16T04:37:15;4.85;;;0.98;;
20802;SDS011;10562;-33.856;151.182;2023-01-16T04:39:47;2.80;;;0.70;;
20802;SDS011;10562;-33.856;151.182;2023-01-16T04:42:18;6.82;;;0.80;;
20802;SDS011;10562;-33.856;151.182;2023-01-16T04:44:49;4.15;;;0.70;;
20802;SDS011;10562;-33.856;151.182;2023-01-16T04:47:20;4.97;;;0.82;;
20802;SDS011;10562;-33.856;151.182;2023-01-16T04:49:51;6.85;;;0.82;;
20802;SDS011;10562;-33.856;151.182;2023-01-16T04:52:23;3.80;;;0.98;;
20802;SDS011;10562;-33.856;151.182;2023-01-16T04:54:54;3.08;;;0.60;;
20802;SDS011;10562;-33.856;151.182;2023-01-16T04:57:25;3.33;;;1.00;;
20802;SDS011;10562;-33.856;151.182;2023-01-16T04:59:56;5.05;;;1.10;;
20802;SDS011;10562;-33.856;151.182;2023-01-16T05:02:26;3.55;;;0.73;;
20802;SDS011;10562;-33.856;151.182;2023-01-16T05:04:57;3.75;;;0.95;;
20802;SDS011;10562;-33.856;151.182;2023-01-16T05:07:30;2.67;;;0.68;;
20802;SDS011;10562;-33.856;151.182;2023-01-16T05:10:00;2.92;;;0.80;;
20802;SDS011;10562;-33.856;151.182;2023-01-16T05:12:31;2.65;;;0.77;;
20802;SDS011;10562;-33.856;151.182;2023-01-16T05:15:02;5.15;;;0.90;;
20802;SDS011;10562;-33.856;151.182;2023-01-16T05:17:33;2.88;;;0.90;;
20802;SDS011;10562;-33.856;151.182;2023-01-16T05:20:04;7.57;;;0.85;;
20802;SDS011;10562;-33.856;151.182;2023-01-16T05:22:37;3.95;;;0.80;;
20802;SDS011;10562;-33.856;151.182;2023-01-16T05:25:08;3.88;;;0.85;;
20802;SDS011;10562;-33.856;151.182;2023-01-16T05:27:39;4.97;;;0.80;;
20802;SDS011;10562;-33.856;151.182;2023-01-16T05:30:10;3.22;;;0.75;;
20802;SDS011;10562;-33.856;151.182;2023-01-16T05:32:42;5.07;;;1.02;;
20802;SDS011;10562;-33.856;151.182;2023-01-16T05:35:13;4.93;;;0.85;;
20802;SDS011;10562;-33.856;151.182;2023-01-16T05:37:47;5.95;;;0.90;;
20802;SDS011;10562;-33.856;151.182;2023-01-16T05:40:18;3.13;;;0.80;;
20802;SDS011;10562;-33.856;151.182;2023-01-16T05:42:49;2.33;;;0.80;;
20802;SDS011;10562;-33.856;151.182;2023-01-16T05:45:20;5.72;;;1.08;;
20802;SDS011;10562;-33.856;151.182;2023-01-16T05:47:50;3.83;;;0.82;;
20802;SDS011;10562;-33.856;151.182;2023-01-16T05:50:21;4.13;;;0.80;;
20802;SDS011;10562;-33.856;151.182;2023-01-16T05:52:54;7.75;;;1.10;;
20802;SDS011;10562;-33.856;151.182;2023-01-16T05:55:25;4.28;;;0.88;;
20802;SDS011;10562;-33.856;151.182;2023-01-16T05:57:56;3.35;;;0.90;;
20802;SDS011;10562;-33.856;151.182;2023-01-16T06:00:26;5.43;;;1.10;;
20802;SDS011;10562;-33.856;151.182;2023-01-16T06:02:57;7.68;;;0.88;;
20802;SDS011;10562;-33.856;151.182;2023-01-16T06:05:28;3.83;;;0.95;;
20802;SDS011;10562;-33.856;151.182;2023-01-16T06:08:01;4.97;;;0.90;;
20802;SDS011;10562;-33.856;151.182;2023-01-16T06:10:32;7.90;;;1.10;;
20802;SDS011;10562;-33.856;151.182;2023-01-16T06:13:02;5.47;;;0.95;;
20802;SDS011;10562;-33.856;151.182;2023-01-16T06:15:33;4.78;;;0.80;;
20802;SDS011;10562;-33.856;151.182;2023-01-16T06:18:07;3.50;;;0.90;;
20802;SDS011;10562;-33.856;151.182;2023-01-16T06:20:37;5.10;;;1.00;;
20802;SDS011;10562;-33.856;151.182;2023-01-16T06:23:10;4.03;;;0.90;;
20802;SDS011;10562;-33.856;151.182;2023-01-16T06:25:41;4.22;;;0.93;;
20802;SDS011;10562;-33.856;151.182;2023-01-16T06:28:12;5.63;;;1.30;;
20802;SDS011;10562;-33.856;151.182;2023-01-16T06:30:42;4.60;;;0.90;;
20802;SDS011;10562;-33.856;151.182;2023-01-16T06:33:14;3.13;;;0.90;;
20802;SDS011;10562;-33.856;151.182;2023-01-16T06:35:46;5.28;;;1.08;;
20802;SDS011;10562;-33.856;151.182;2023-01-16T06:38:19;3.17;;;0.93;;
20802;SDS011;10562;-33.856;151.182;2023-01-16T06:40:50;5.43;;;1.00;;
20802;SDS011;10562;-33.856;151.182;2023-01-16T06:43:23;5.68;;;1.15;;
20802;SDS011;10562;-33.856;151.182;2023-01-16T06:45:54;5.40;;;1.30;;
20802;SDS011;10562;-33.856;151.182;2023-01-16T06:48:26;5.28;;;1.20;;
20802;SDS011;10562;-33.856;151.182;2023-01-16T06:50:57;4.70;;;1.05;;
20802;SDS011;10562;-33.856;151.182;2023-01-16T06:53:30;4.43;;;1.00;;
20802;SDS011;10562;-33.856;151.182;2023-01-16T06:56:01;5.45;;;1.20;;
20802;SDS011;10562;-33.856;151.182;2023-01-16T06:58:32;5.03;;;1.00;;
20802;SDS011;10562;-33.856;151.182;2023-01-16T07:01:03;4.88;;;1.30;;
20802;SDS011;10562;-33.856;151.182;2023-01-16T07:03:33;4.35;;;1.00;;
20802;SDS011;10562;-33.856;151.182;2023-01-16T07:06:04;5.63;;;1.00;;
20802;SDS011;10562;-33.856;151.182;2023-01-16T07:08:37;5.88;;;1.05;;
20802;SDS011;10562;-33.856;151.182;2023-01-16T07:11:08;3.97;;;0.95;;
20802;SDS011;10562;-33.856;151.182;2023-01-16T07:13:38;4.35;;;0.85;;
20802;SDS011;10562;-33.856;151.182;2023-01-16T07:16:09;4.60;;;1.02;;
20802;SDS011;10562;-33.856;151.182;2023-01-16T07:18:57;4.97;;;1.02;;
20802;SDS011;10562;-33.856;151.182;2023-01-16T07:21:44;4.53;;;1.00;;
20802;SDS011;10562;-33.856;151.182;2023-01-16T07:24:35;3.47;;;1.00;;
20802;SDS011;10562;-33.856;151.182;2023-01-16T07:27:08;4.05;;;0.82;;
20802;SDS011;10562;-33.856;151.182;2023-01-16T07:29:38;5.65;;;1.00;;
20802;SDS011;10562;-33.856;151.182;2023-01-16T07:32:09;6.50;;;1.02;;
20802;SDS011;10562;-33.856;151.182;2023-01-16T07:34:41;5.15;;;0.90;;
20802;SDS011;10562;-33.856;151.182;2023-01-16T07:37:12;3.63;;;0.82;;
20802;SDS011;10562;-33.856;151.182;2023-01-16T07:39:44;4.75;;;0.98;;
20802;SDS011;10562;-33.856;151.182;2023-01-16T07:42:15;6.03;;;1.20;;
20802;SDS011;10562;-33.856;151.182;2023-01-16T07:44:46;4.70;;;0.90;;
20802;SDS011;10562;-33.856;151.182;2023-01-16T07:47:17;2.95;;;0.82;;
20802;SDS011;10562;-33.856;151.182;2023-01-16T07:49:47;5.03;;;1.17;;
20802;SDS011;10562;-33.856;151.182;2023-01-16T07:52:18;6.43;;;0.90;;
20802;SDS011;10562;-33.856;151.182;2023-01-16T07:54:51;4.55;;;0.90;;
20802;SDS011;10562;-33.856;151.182;2023-01-16T07:57:22;3.40;;;0.82;;
20802;SDS011;10562;-33.856;151.182;2023-01-16T07:59:53;4.60;;;1.17;;
20802;SDS011;10562;-33.856;151.182;2023-01-16T08:02:24;6.80;;;1.00;;
20802;SDS011;10562;-33.856;151.182;2023-01-16T08:04:55;5.10;;;0.80;;
20802;SDS011;10562;-33.856;151.182;2023-01-16T08:07:28;5.18;;;1.17;;
20802;SDS011;10562;-33.856;151.182;2023-01-16T08:10:00;5.65;;;0.98;;
20802;SDS011;10562;-33.856;151.182;2023-01-16T08:12:31;7.72;;;1.33;;
20802;SDS011;10562;-33.856;151.182;2023-01-16T08:15:02;4.68;;;1.20;;
20802;SDS011;10562;-33.856;151.182;2023-01-16T08:17:33;3.15;;;1.10;;
20802;SDS011;10562;-33.856;151.182;2023-01-16T08:20:08;6.80;;;1.10;;
20802;SDS011;10562;-33.856;151.182;2023-01-16T08:22:43;5.45;;;1.00;;
20802;SDS011;10562;-33.856;151.182;2023-01-16T08:25:16;4.82;;;1.08;;
20802;SDS011;10562;-33.856;151.182;2023-01-16T08:27:48;6.32;;;1.10;;
20802;SDS011;10562;-33.856;151.182;2023-01-16T08:30:19;2.60;;;0.90;;
20802;SDS011;10562;-33.856;151.182;2023-01-16T08:32:49;4.50;;;0.98;;
20802;SDS011;10562;-33.856;151.182;2023-01-16T08:35:27;3.13;;;1.00;;
20802;SDS011;10562;-33.856;151.182;2023-01-16T08:37:58;5.30;;;1.38;;
20802;SDS011;10562;-33.856;151.182;2023-01-16T08:40:31;4.43;;;1.08;;
20802;SDS011;10562;-33.856;151.182;2023-01-16T08:43:03;4.22;;;1.10;;
20802;SDS011;10562;-33.856;151.182;2023-01-16T08:45:49;5.20;;;1.10;;
20802;SDS011;10562;-33.856;151.182;2023-01-16T08:48:36;4.22;;;1.15;;
20802;SDS011;10562;-33.856;151.182;2023-01-16T08:51:22;3.17;;;1.00;;
20802;SDS011;10562;-33.856;151.182;2023-01-16T08:53:54;4.80;;;1.20;;
20802;SDS011;10562;-33.856;151.182;2023-01-16T08:56:27;6.15;;;1.25;;
20802;SDS011;10562;-33.856;151.182;2023-01-16T08:58:59;4.85;;;1.15;;
20802;SDS011;10562;-33.856;151.182;2023-01-16T09:01:30;4.80;;;1.30;;
20802;SDS011;10562;-33.856;151.182;2023-01-16T09:04:00;6.70;;;1.30;;
20802;SDS011;10562;-33.856;151.182;2023-01-16T09:06:31;4.28;;;1.40;;
20802;SDS011;10562;-33.856;151.182;2023-01-16T09:09:04;5.95;;;1.23;;
20802;SDS011;10562;-33.856;151.182;2023-01-16T09:11:37;6.43;;;1.50;;
20802;SDS011;10562;-33.856;151.182;2023-01-16T09:14:24;6.85;;;1.33;;
20802;SDS011;10562;-33.856;151.182;2023-01-16T09:16:54;5.55;;;1.10;;
20802;SDS011;10562;-33.856;151.182;2023-01-16T09:19:26;6.15;;;1.10;;
20802;SDS011;10562;-33.856;151.182;2023-01-16T09:21:57;5.43;;;1.30;;
20802;SDS011;10562;-33.856;151.182;2023-01-16T09:24:28;4.10;;;1.20;;
20802;SDS011;10562;-33.856;151.182;2023-01-16T09:27:01;3.72;;;1.10;;
20802;SDS011;10562;-33.856;151.182;2023-01-16T09:29:32;5.85;;;1.05;;
20802;SDS011;10562;-33.856;151.182;2023-01-16T09:32:03;8.45;;;1.40;;
20802;SDS011;10562;-33.856;151.182;2023-01-16T09:34:35;4.70;;;1.27;;
20802;SDS011;10562;-33.856;151.182;2023-01-16T09:37:07;3.58;;;1.27;;
20802;SDS011;10562;-33.856;151.182;2023-01-16T09:39:38;3.25;;;1.23;;
20802;SDS011;10562;-33.856;151.182;2023-01-16T09:42:16;6.53;;;1.50;;
20802;SDS011;10562;-33.856;151.182;2023-01-16T09:45:24;4.15;;;1.10;;
20802;SDS011;10562;-33.856;151.182;2023-01-16T09:47:57;3.85;;;1.13;;
20802;SDS011;10562;-33.856;151.182;2023-01-16T09:50:32;3.80;;;1.10;;
20802;SDS011;10562;-33.856;151.182;2023-01-16T09:53:09;4.70;;;1.15;;
20802;SDS011;10562;-33.856;151.182;2023-01-16T09:56:00;6.57;;;1.10;;
20802;SDS011;10562;-33.856;151.182;2023-01-16T09:58:54;6.75;;;1.42;;
20802;SDS011;10562;-33.856;151.182;2023-01-16T10:01:32;4.97;;;1.40;;
20802;SDS011;10562;-33.856;151.182;2023-01-16T10:04:10;5.57;;;1.15;;
20802;SDS011;10562;-33.856;151.182;2023-01-16T10:06:48;5.10;;;1.23;;
20802;SDS011;10562;-33.856;151.182;2023-01-16T10:09:35;7.88;;;1.08;;
20802;SDS011;10562;-33.856;151.182;2023-01-16T10:12:11;5.00;;;1.08;;
20802;SDS011;10562;-33.856;151.182;2023-01-16T10:14:47;6.78;;;1.15;;
20802;SDS011;10562;-33.856;151.182;2023-01-16T10:17:42;4.47;;;1.25;;
20802;SDS011;10562;-33.856;151.182;2023-01-16T10:20:26;5.95;;;1.17;;
20802;SDS011;10562;-33.856;151.182;2023-01-16T10:23:11;2.45;;;0.90;;
20802;SDS011;10562;-33.856;151.182;2023-01-16T10:25:52;3.72;;;0.90;;
20802;SDS011;10562;-33.856;151.182;2023-01-16T10:28:31;4.47;;;0.98;;
20802;SDS011;10562;-33.856;151.182;2023-01-16T10:31:17;5.85;;;1.40;;
20802;SDS011;10562;-33.856;151.182;2023-01-16T10:33:52;6.55;;;1.33;;
20802;SDS011;10562;-33.856;151.182;2023-01-16T10:36:26;6.13;;;1.05;;
20802;SDS011;10562;-33.856;151.182;2023-01-16T10:39:00;4.60;;;1.10;;
20802;SDS011;10562;-33.856;151.182;2023-01-16T10:41:34;5.45;;;1.10;;
20802;SDS011;10562;-33.856;151.182;2023-01-16T10:44:30;5.93;;;1.08;;
20802;SDS011;10562;-33.856;151.182;2023-01-16T10:47:21;5.75;;;1.00;;
20802;SDS011;10562;-33.856;151.182;2023-01-16T10:50:10;5.90;;;1.20;;
20802;SDS011;10562;-33.856;151.182;2023-01-16T10:52:45;4.15;;;1.00;;
20802;SDS011;10562;-33.856;151.182;2023-01-16T10:55:16;3.70;;;1.00;;
20802;SDS011;10562;-33.856;151.182;2023-01-16T10:57:48;5.75;;;1.10;;
20802;SDS011;10562;-33.856;151.182;2023-01-16T11:00:21;4.28;;;1.05;;
20802;SDS011;10562;-33.856;151.182;2023-01-16T11:02:58;3.40;;;0.90;;
20802;SDS011;10562;-33.856;151.182;2023-01-16T11:05:31;6.22;;;1.20;;
20802;SDS011;10562;-33.856;151.182;2023-01-16T11:08:05;3.17;;;0.93;;
20802;SDS011;10562;-33.856;151.182;2023-01-16T11:10:39;4.78;;;1.00;;
20802;SDS011;10562;-33.856;151.182;2023-01-16T11:13:13;5.45;;;1.40;;
20802;SDS011;10562;-33.856;151.182;2023-01-16T11:16:04;2.72;;;0.90;;
20802;SDS011;10562;-33.856;151.182;2023-01-16T11:19:16;3.30;;;0.90;;
20802;SDS011;10562;-33.856;151.182;2023-01-16T11:21:50;4.85;;;1.13;;
20802;SDS011;10562;-33.856;151.182;2023-01-16T11:24:22;3.58;;;0.90;;
20802;SDS011;10562;-33.856;151.182;2023-01-16T11:26:59;6.18;;;1.35;;
20802;SDS011;10562;-33.856;151.182;2023-01-16T11:29:35;2.47;;;0.80;;
20802;SDS011;10562;-33.856;151.182;2023-01-16T11:32:09;5.15;;;0.90;;
20802;SDS011;10562;-33.856;151.182;2023-01-16T11:34:45;6.40;;;1.17;;
20802;SDS011;10562;-33.856;151.182;2023-01-16T11:37:17;2.72;;;0.90;;
20802;SDS011;10562;-33.856;151.182;2023-01-16T11:39:49;1.98;;;0.80;;
20802;SDS011;10562;-33.856;151.182;2023-01-16T11:42:22;4.72;;;1.00;;
20802;SDS011;10562;-33.856;151.182;2023-01-16T11:45:13;7.93;;;1.10;;
20802;SDS011;10562;-33.856;151.182;2023-01-16T11:48:02;5.57;;;1.00;;
20802;SDS011;10562;-33.856;151.182;2023-01-16T11:50:51;7.90;;;1.10;;
20802;SDS011;10562;-33.856;151.182;2023-01-16T11:53:23;4.40;;;0.90;;
20802;SDS011;10562;-33.856;151.182;2023-01-16T11:59:06;6.03;;;1.10;;
20802;SDS011;10562;-33.856;151.182;2023-01-16T12:01:54;3.53;;;0.90;;
20802;SDS011;10562;-33.856;151.182;2023-01-16T12:04:46;4.82;;;0.95;;
20802;SDS011;10562;-33.856;151.182;2023-01-16T12:07:44;6.60;;;1.08;;
20802;SDS011;10562;-33.856;151.182;2023-01-16T12:10:25;4.38;;;1.10;;
20802;SDS011;10562;-33.856;151.182;2023-01-16T12:13:04;5.40;;;1.10;;
20802;SDS011;10562;-33.856;151.182;2023-01-16T12:15:55;7.00;;;1.23;;
20802;SDS011;10562;-33.856;151.182;2023-01-16T12:18:41;5.90;;;1.20;;
20802;SDS011;10562;-33.856;151.182;2023-01-16T12:21:30;4.43;;;1.10;;
20802;SDS011;10562;-33.856;151.182;2023-01-16T12:24:09;1.48;;;0.88;;
20802;SDS011;10562;-33.856;151.182;2023-01-16T12:27:03;4.53;;;1.40;;
20802;SDS011;10562;-33.856;151.182;2023-01-16T12:29:48;5.80;;;1.10;;
20802;SDS011;10562;-33.856;151.182;2023-01-16T12:32:41;7.03;;;1.17;;
20802;SDS011;10562;-33.856;151.182;2023-01-16T12:35:22;4.25;;;1.30;;
20802;SDS011;10562;-33.856;151.182;2023-01-16T12:38:07;5.00;;;1.10;;
20802;SDS011;10562;-33.856;151.182;2023-01-16T12:44:01;3.67;;;1.00;;
20802;SDS011;10562;-33.856;151.182;2023-01-16T12:46:52;4.40;;;1.10;;
20802;SDS011;10562;-33.856;151.182;2023-01-16T12:49:39;4.63;;;1.23;;
20802;SDS011;10562;-33.856;151.182;2023-01-16T12:52:24;5.03;;;1.20;;
20802;SDS011;10562;-33.856;151.182;2023-01-16T12:55:12;3.05;;;1.00;;
20802;SDS011;10562;-33.856;151.182;2023-01-16T12:58:05;5.63;;;1.00;;
20802;SDS011;10562;-33.856;151.182;2023-01-16T13:00:45;4.35;;;1.13;;
20802;SDS011;10562;-33.856;151.182;2023-01-16T13:03:24;6.93;;;1.33;;
20802;SDS011;10562;-33.856;151.182;2023-01-16T13:06:00;12.57;;;1.20;;
20802;SDS011;10562;-33.856;151.182;2023-01-16T13:08:34;4.72;;;1.10;;
20802;SDS011;10562;-33.856;151.182;2023-01-16T13:11:10;7.38;;;1.17;;
20802;SDS011;10562;-33.856;151.182;2023-01-16T13:14:03;4.78;;;0.93;;
20802;SDS011;10562;-33.856;151.182;2023-01-16T13:16:36;6.15;;;1.38;;
20802;SDS011;10562;-33.856;151.182;2023-01-16T13:19:10;6.15;;;1.08;;
20802;SDS011;10562;-33.856;151.182;2023-01-16T13:21:51;6.25;;;1.20;;
20802;SDS011;10562;-33.856;151.182;2023-01-16T13:24:26;7.20;;;1.42;;
20802;SDS011;10562;-33.856;151.182;2023-01-16T13:27:00;5.53;;;1.25;;
20802;SDS011;10562;-33.856;151.182;2023-01-16T13:29:36;5.97;;;1.40;;
20802;SDS011;10562;-33.856;151.182;2023-01-16T13:32:15;7.93;;;1.20;;
20802;SDS011;10562;-33.856;151.182;2023-01-16T13:34:54;6.03;;;1.65;;
20802;SDS011;10562;-33.856;151.182;2023-01-16T13:37:37;4.65;;;1.38;;
20802;SDS011;10562;-33.856;151.182;2023-01-16T13:43:42;7.68;;;1.40;;
20802;SDS011;10562;-33.856;151.182;2023-01-16T13:46:34;6.88;;;1.48;;
20802;SDS011;10562;-33.856;151.182;2023-01-16T13:49:05;6.80;;;1.73;;
20802;SDS011;10562;-33.856;151.182;2023-01-16T13:51:44;4.53;;;1.25;;
20802;SDS011;10562;-33.856;151.182;2023-01-16T13:54:16;3.97;;;1.30;;
20802;SDS011;10562;-33.856;151.182;2023-01-16T13:56:56;4.85;;;1.42;;
20802;SDS011;10562;-33.856;151.182;2023-01-16T13:59:33;5.60;;;1.30;;
20802;SDS011;10562;-33.856;151.182;2023-01-16T14:02:26;5.15;;;1.40;;
20802;SDS011;10562;-33.856;151.182;2023-01-16T14:05:15;5.57;;;1.30;;
20802;SDS011;10562;-33.856;151.182;2023-01-16T14:08:04;7.13;;;1.35;;
20802;SDS011;10562;-33.856;151.182;2023-01-16T14:11:14;3.55;;;1.35;;
20802;SDS011;10562;-33.856;151.182;2023-01-16T14:17:14;4.20;;;1.27;;
20802;SDS011;10562;-33.856;151.182;2023-01-16T14:19:57;5.70;;;1.75;;
20802;SDS011;10562;-33.856;151.182;2023-01-16T14:22:33;6.40;;;1.38;;
20802;SDS011;10562;-33.856;151.182;2023-01-16T14:25:24;3.53;;;1.50;;
20802;SDS011;10562;-33.856;151.182;2023-01-16T14:27:58;4.80;;;1.77;;
20802;SDS011;10562;-33.856;151.182;2023-01-16T14:30:30;7.72;;;2.00;;
20802;SDS011;10562;-33.856;151.182;2023-01-16T14:33:03;6.00;;;1.90;;
20802;SDS011;10562;-33.856;151.182;2023-01-16T14:35:43;8.05;;;1.90;;
20802;SDS011;10562;-33.856;151.182;2023-01-16T14:38:18;5.15;;;1.80;;
20802;SDS011;10562;-33.856;151.182;2023-01-16T14:40:53;8.70;;;2.00;;
20802;SDS011;10562;-33.856;151.182;2023-01-16T14:43:43;4.63;;;1.60;;
20802;SDS011;10562;-33.856;151.182;2023-01-16T14:47:05;4.45;;;1.55;;
20802;SDS011;10562;-33.856;151.182;2023-01-16T14:50:07;7.75;;;1.90;;
20802;SDS011;10562;-33.856;151.182;2023-01-16T14:56:10;9.10;;;1.60;;
20802;SDS011;10562;-33.856;151.182;2023-01-16T14:58:48;6.55;;;1.73;;
20802;SDS011;10562;-33.856;151.182;2023-01-16T15:01:25;6.05;;;1.63;;
20802;SDS011;10562;-33.856;151.182;2023-01-16T15:04:14;6.45;;;1.83;;
20802;SDS011;10562;-33.856;151.182;2023-01-16T15:06:48;4.57;;;1.70;;
20802;SDS011;10562;-33.856;151.182;2023-01-16T15:09:26;6.28;;;2.10;;
20802;SDS011;10562;-33.856;151.182;2023-01-16T15:11:58;7.13;;;2.20;;
20802;SDS011;10562;-33.856;151.182;2023-01-16T15:14:30;4.30;;;1.77;;
20802;SDS011;10562;-33.856;151.182;2023-01-16T15:17:09;4.65;;;1.73;;
20802;SDS011;10562;-33.856;151.182;2023-01-16T15:23:03;5.28;;;2.00;;